createdAt,value
2022-12-11T00:00:10.157Z,11.27
2022-12-11T00:02:36.798Z,11.07
2022-12-11T00:05:03.859Z,12.32
2022-12-11T00:07:30.927Z,10.02
2022-12-11T00:09:57.544Z,11.23
2022-12-11T00:12:24.271Z,11.20
2022-12-11T00:14:50.907Z,11.88
2022-12-11T00:17:17.547Z,11.25
2022-12-11T00:19:44.443Z,10.77
2022-12-11T00:22:11.091Z,10.77
2022-12-11T00:24:37.678Z,10.93
2022-12-11T00:27:04.258Z,11.02
2022-12-11T00:29:31.390Z,11.25
2022-12-11T00:31:58.036Z,11.35
2022-12-11T00:34:24.940Z,12.40
2022-12-11T00:36:51.655Z,10.95
2022-12-11T00:39:18.379Z,11.75
2022-12-11T00:41:45.036Z,12.10
2022-12-11T00:44:14.142Z,12.20
2022-12-11T00:46:40.803Z,12.93
2022-12-11T00:49:07.418Z,12.30
2022-12-11T00:51:34.017Z,12.95
2022-12-11T00:54:00.595Z,12.77
2022-12-11T00:56:27.278Z,12.57
2022-12-11T00:58:53.985Z,12.93
2022-12-11T01:01:23.879Z,12.02
2022-12-11T01:03:51.783Z,12.32
2022-12-11T01:06:27.250Z,11.63
2022-12-11T01:09:13.237Z,12.00
2022-12-11T01:11:49.635Z,12.07
2022-12-11T01:14:16.303Z,12.73
2022-12-11T01:16:43.040Z,14.68
2022-12-11T01:19:09.649Z,13.23
2022-12-11T01:21:36.279Z,14.05
2022-12-11T01:24:03.001Z,14.25
2022-12-11T01:26:30.583Z,13.35
2022-12-11T01:28:57.215Z,13.90
2022-12-11T01:31:23.826Z,14.75
2022-12-11T01:33:50.439Z,13.88
2022-12-11T01:36:20.696Z,16.15
2022-12-11T01:38:49.101Z,14.98
2022-12-11T01:41:18.245Z,14.20
2022-12-11T01:44:24.664Z,14.32
2022-12-11T01:46:51.328Z,14.40
2022-12-11T01:49:21.516Z,14.32
2022-12-11T01:51:58.080Z,14.45
2022-12-11T01:54:27.300Z,14.15
2022-12-11T01:57:00.099Z,13.45
2022-12-11T01:59:31.096Z,14.85
2022-12-11T02:02:06.316Z,15.48
2022-12-11T02:04:36.567Z,15.02
2022-12-11T02:07:03.711Z,14.25
2022-12-11T02:09:34.512Z,14.73
2022-12-11T02:12:39.793Z,14.82
2022-12-11T02:15:55.284Z,14.73
2022-12-11T02:19:01.848Z,16.08
2022-12-11T02:21:37.684Z,15.60
2022-12-11T02:24:23.172Z,15.48
2022-12-11T02:27:23.451Z,15.77
2022-12-11T02:30:08.411Z,14.48
2022-12-11T02:32:44.424Z,13.25
2022-12-11T02:35:26.623Z,14.35
2022-12-11T02:38:03.716Z,13.95
2022-12-11T02:40:33.055Z,14.48
2022-12-11T02:43:14.319Z,13.63
2022-12-11T02:45:42.677Z,14.50
2022-12-11T02:48:11.557Z,13.73
2022-12-11T02:50:46.297Z,13.48
2022-12-11T02:53:21.496Z,12.45
2022-12-11T02:55:53.015Z,12.75
2022-12-11T02:58:28.147Z,12.45
2022-12-11T03:00:54.732Z,11.18
2022-12-11T03:03:22.164Z,13.00
2022-12-11T03:05:48.800Z,12.68
2022-12-11T03:08:18.690Z,13.82
2022-12-11T03:10:45.949Z,14.30
2022-12-11T03:13:18.196Z,14.07
2022-12-11T03:16:11.152Z,13.20
2022-12-11T03:19:12.902Z,12.63
2022-12-11T03:21:49.117Z,12.55
2022-12-11T03:24:24.557Z,12.23
2022-12-11T03:27:03.605Z,12.65
2022-12-11T03:29:58.588Z,12.13
2022-12-11T03:32:55.382Z,12.65
2022-12-11T03:35:37.082Z,12.25
2022-12-11T03:38:16.384Z,12.40
2022-12-11T03:40:49.102Z,12.93
2022-12-11T03:43:17.119Z,12.32
2022-12-11T03:45:46.780Z,12.13
2022-12-11T03:48:16.392Z,14.02
2022-12-11T03:50:46.835Z,13.70
2022-12-11T03:53:18.491Z,14.48
2022-12-11T03:55:46.137Z,13.65
2022-12-11T03:58:12.754Z,14.80
2022-12-11T04:00:39.532Z,14.75
2022-12-11T04:03:15.800Z,15.00
2022-12-11T04:05:48.940Z,13.75
2022-12-11T04:08:18.821Z,14.73
2022-12-11T04:10:45.569Z,15.52
2022-12-11T04:13:13.262Z,15.52
2022-12-11T04:15:40.680Z,15.25
2022-12-11T04:18:27.985Z,13.95
2022-12-11T04:21:14.109Z,14.23
2022-12-11T04:23:59.815Z,14.75
2022-12-11T04:26:26.752Z,14.60
2022-12-11T04:28:53.406Z,16.73
2022-12-11T04:31:22.492Z,15.50
2022-12-11T04:33:49.387Z,15.38
2022-12-11T04:36:16.671Z,15.68
2022-12-11T04:38:43.312Z,15.70
2022-12-11T04:41:15.613Z,16.27
2022-12-11T04:43:44.977Z,15.88
2022-12-11T04:46:24.259Z,15.50
2022-12-11T04:48:57.378Z,15.70
2022-12-11T04:51:25.544Z,16.30
2022-12-11T04:53:54.993Z,16.38
2022-12-11T04:56:23.316Z,17.33
2022-12-11T04:58:49.958Z,15.85
2022-12-11T05:01:20.537Z,15.75
2022-12-11T05:03:47.499Z,15.88
2022-12-11T05:06:16.392Z,16.42
2022-12-11T05:08:46.187Z,15.10
2022-12-11T05:11:15.222Z,15.57
2022-12-11T05:13:42.558Z,17.58
2022-12-11T05:16:14.772Z,16.52
2022-12-11T05:18:41.895Z,15.93
2022-12-11T05:21:12.750Z,16.50
2022-12-11T05:23:40.448Z,17.10
2022-12-11T05:26:18.775Z,17.88
2022-12-11T05:28:46.182Z,18.13
2022-12-11T05:31:18.614Z,18.38
2022-12-11T05:33:46.774Z,18.52
2022-12-11T05:36:39.807Z,18.55
2022-12-11T05:39:06.441Z,17.88
2022-12-11T05:41:33.100Z,17.25
2022-12-11T05:44:00.201Z,17.23
2022-12-11T05:46:30.006Z,17.77
2022-12-11T05:49:02.370Z,18.80
2022-12-11T05:51:30.063Z,18.50
2022-12-11T05:53:57.847Z,18.42
2022-12-11T05:56:31.773Z,18.90
2022-12-11T05:59:00.989Z,18.98
2022-12-11T06:01:38.392Z,18.58
2022-12-11T06:04:06.948Z,18.65
2022-12-11T06:06:34.538Z,18.23
2022-12-11T06:09:04.737Z,18.85
2022-12-11T06:11:33.253Z,18.58
2022-12-11T06:14:02.873Z,18.23
2022-12-11T06:16:29.533Z,16.05
2022-12-11T06:18:58.429Z,16.98
2022-12-11T06:21:32.075Z,18.58
2022-12-11T06:24:01.854Z,18.20
2022-12-11T06:26:29.949Z,18.58
2022-12-11T06:28:56.678Z,17.80
2022-12-11T06:31:23.624Z,20.08
2022-12-11T06:33:50.421Z,30.08
2022-12-11T06:36:20.256Z,24.45
2022-12-11T06:38:47.791Z,24.40
2022-12-11T06:41:15.197Z,20.23
2022-12-11T06:43:42.881Z,17.73
2022-12-11T06:46:17.440Z,18.08
2022-12-11T06:48:44.805Z,17.63
2022-12-11T06:51:15.777Z,17.75
2022-12-11T06:53:43.916Z,19.90
2022-12-11T06:56:14.843Z,16.63
2022-12-11T06:58:42.795Z,18.05
2022-12-11T07:01:20.044Z,18.77
2022-12-11T07:03:47.529Z,19.30
2022-12-11T07:06:14.865Z,19.17
2022-12-11T07:08:41.908Z,20.15
2022-12-11T07:11:15.029Z,19.45
2022-12-11T07:13:42.272Z,20.70
2022-12-11T07:16:10.984Z,19.10
2022-12-11T07:18:45.892Z,20.10
2022-12-11T07:21:13.705Z,19.77
2022-12-11T07:23:40.460Z,19.95
2022-12-11T07:26:14.984Z,20.25
2022-12-11T07:28:42.388Z,31.40
2022-12-11T07:31:12.609Z,44.95
2022-12-11T07:33:39.865Z,28.17
2022-12-11T07:36:11.589Z,23.92
2022-12-11T07:38:38.905Z,20.10
2022-12-11T07:41:10.376Z,18.10
2022-12-11T07:43:39.114Z,18.88
2022-12-11T07:46:14.088Z,18.90
2022-12-11T07:48:42.879Z,19.67
2022-12-11T07:51:09.640Z,18.55
2022-12-11T07:53:36.321Z,18.33
2022-12-11T07:56:03.656Z,18.48
2022-12-11T07:58:30.280Z,18.13
2022-12-11T08:00:58.067Z,19.75
2022-12-11T08:03:24.970Z,20.15
2022-12-11T08:05:53.019Z,19.73
2022-12-11T08:08:23.083Z,21.25
2022-12-11T08:10:49.701Z,18.73
2022-12-11T08:13:16.586Z,17.80
2022-12-11T08:15:43.285Z,16.52
2022-12-11T08:18:09.886Z,18.38
2022-12-11T08:20:39.133Z,15.55
2022-12-11T08:23:05.893Z,16.77
2022-12-11T08:25:32.773Z,16.75
2022-12-11T08:27:59.396Z,19.40
2022-12-11T08:30:25.960Z,18.95
2022-12-11T08:32:52.653Z,18.00
2022-12-11T08:35:19.273Z,18.67
2022-12-11T08:37:45.905Z,16.83
2022-12-11T08:40:12.774Z,31.30
2022-12-11T08:42:39.717Z,22.95
2022-12-11T08:45:07.506Z,18.73
2022-12-11T08:47:34.095Z,17.73
2022-12-11T08:50:00.736Z,19.90
2022-12-11T08:52:31.186Z,21.02
2022-12-11T08:54:58.286Z,19.50
2022-12-11T08:57:24.902Z,17.77
2022-12-11T08:59:51.474Z,15.45
2022-12-11T09:02:18.071Z,14.77
2022-12-11T09:04:44.729Z,15.63
2022-12-11T09:07:12.294Z,14.55
2022-12-11T09:09:38.953Z,16.17
2022-12-11T09:12:05.933Z,16.40
2022-12-11T09:14:32.554Z,15.85
2022-12-11T09:16:59.217Z,15.55
2022-12-11T09:19:31.877Z,17.23
2022-12-11T09:21:58.937Z,15.82
2022-12-11T09:24:25.558Z,18.90
2022-12-11T09:26:52.157Z,18.15
2022-12-11T09:29:18.826Z,17.30
2022-12-11T09:31:46.738Z,16.83
2022-12-11T09:34:14.221Z,18.80
2022-12-11T09:36:44.188Z,17.08
2022-12-11T09:39:13.514Z,17.27
2022-12-11T09:42:09.619Z,16.23
2022-12-11T09:44:57.602Z,17.13
2022-12-11T09:47:38.505Z,17.88
2022-12-11T09:50:11.227Z,18.67
2022-12-11T09:52:56.931Z,18.08
2022-12-11T09:55:27.229Z,18.15
2022-12-11T09:58:07.943Z,18.85
2022-12-11T10:00:47.486Z,18.10
2022-12-11T10:03:29.143Z,19.73
2022-12-11T10:06:33.591Z,21.35
2022-12-11T10:09:25.370Z,17.55
2022-12-11T10:12:48.338Z,18.00
2022-12-11T10:15:33.027Z,17.20
2022-12-11T10:18:04.852Z,18.15
2022-12-11T10:20:39.035Z,17.88
2022-12-11T10:23:20.230Z,19.73
2022-12-11T10:26:20.007Z,18.90
2022-12-11T10:28:47.298Z,20.77
2022-12-11T10:31:19.112Z,18.52
2022-12-11T10:34:03.560Z,19.77
2022-12-11T10:36:40.036Z,19.38
2022-12-11T10:39:16.434Z,19.63
2022-12-11T10:41:46.311Z,18.63
2022-12-11T10:44:20.550Z,20.75
2022-12-11T10:46:49.768Z,18.42
2022-12-11T10:49:30.081Z,19.35
2022-12-11T10:52:01.329Z,20.95
2022-12-11T10:54:33.512Z,20.40
2022-12-11T10:57:02.907Z,21.92
2022-12-11T10:59:41.110Z,20.83
2022-12-11T11:02:27.234Z,21.48
2022-12-11T11:04:57.356Z,20.08
2022-12-11T11:07:28.184Z,21.20
2022-12-11T11:10:10.229Z,20.38
2022-12-11T11:12:44.376Z,19.52
2022-12-11T11:15:23.058Z,18.83
2022-12-11T11:17:56.062Z,19.48
2022-12-11T11:20:29.871Z,19.17
2022-12-11T11:23:01.365Z,17.63
2022-12-11T11:25:32.454Z,17.92
2022-12-11T11:28:04.129Z,19.15
2022-12-11T11:30:40.575Z,16.40
2022-12-11T11:33:25.674Z,16.73
2022-12-11T11:36:05.640Z,15.45
2022-12-11T11:38:41.534Z,13.68
2022-12-11T11:41:21.307Z,13.63
2022-12-11T11:43:54.135Z,13.05
2022-12-11T11:46:55.056Z,14.23
2022-12-11T11:50:06.647Z,14.52
2022-12-11T11:52:44.111Z,14.32
2022-12-11T11:55:22.361Z,15.02
2022-12-11T11:58:19.257Z,14.48
2022-12-11T12:00:46.054Z,13.43
2022-12-11T12:03:19.700Z,16.75
2022-12-11T12:05:57.363Z,13.95
2022-12-11T12:09:00.226Z,12.60
2022-12-11T12:12:05.873Z,13.13
2022-12-11T12:14:52.879Z,13.38
2022-12-11T12:17:55.680Z,14.02
2022-12-11T12:21:00.714Z,15.98
2022-12-11T12:23:58.391Z,21.00
2022-12-11T12:26:31.851Z,20.10
2022-12-11T12:29:39.356Z,13.43
2022-12-11T12:32:39.204Z,14.95
2022-12-11T12:35:34.751Z,15.25
2022-12-11T12:38:11.518Z,16.23
2022-12-11T12:41:22.691Z,14.50
2022-12-11T12:44:13.137Z,14.55
2022-12-11T12:47:09.748Z,13.85
2022-12-11T12:49:44.930Z,13.73
2022-12-11T12:52:24.327Z,15.60
2022-12-11T12:55:14.969Z,12.85
2022-12-11T12:57:48.248Z,11.82
2022-12-11T13:00:38.484Z,11.55
2022-12-11T13:03:20.249Z,10.55
2022-12-11T13:06:05.055Z,10.93
2022-12-11T13:08:48.683Z,11.15
2022-12-11T13:11:20.947Z,12.00
2022-12-11T13:14:02.767Z,10.10
2022-12-11T13:16:39.417Z,11.25
2022-12-11T13:19:25.271Z,13.25
2022-12-11T13:22:20.291Z,14.13
2022-12-11T13:24:53.041Z,11.70
2022-12-11T13:27:25.611Z,13.13
2022-12-11T13:30:15.773Z,12.43
2022-12-11T13:33:15.890Z,10.38
2022-12-11T13:35:42.847Z,10.35
2022-12-11T13:38:21.050Z,10.27
2022-12-11T13:40:54.548Z,10.45
2022-12-11T13:43:27.302Z,9.02
2022-12-11T13:45:59.875Z,9.15
2022-12-11T13:48:39.185Z,8.90
2022-12-11T13:51:06.945Z,8.90
2022-12-11T13:53:33.785Z,8.77
2022-12-11T13:56:06.944Z,8.70
2022-12-11T13:58:37.839Z,9.73
2022-12-11T14:01:22.728Z,8.73
2022-12-11T14:04:00.744Z,9.70
2022-12-11T14:06:29.393Z,10.52
2022-12-11T14:09:00.608Z,10.50
2022-12-11T14:11:32.257Z,9.02
2022-12-11T14:14:02.067Z,9.13
2022-12-11T14:16:29.538Z,9.48
2022-12-11T14:19:06.207Z,9.35
2022-12-11T14:21:33.059Z,8.50
2022-12-11T14:24:03.567Z,9.80
2022-12-11T14:26:34.242Z,10.27
2022-12-11T14:29:02.600Z,8.57
2022-12-11T14:31:36.221Z,9.30
2022-12-11T14:34:11.801Z,10.10
2022-12-11T14:36:41.035Z,9.95
2022-12-11T14:39:18.579Z,9.25
2022-12-11T14:42:08.876Z,8.82
2022-12-11T14:45:09.304Z,8.93
2022-12-11T14:47:44.139Z,9.80
2022-12-11T14:50:33.033Z,9.95
2022-12-11T14:53:12.673Z,9.10
2022-12-11T14:55:41.153Z,9.52
2022-12-11T14:58:19.811Z,10.27
2022-12-11T15:01:01.339Z,10.55
2022-12-11T15:03:38.245Z,10.75
2022-12-11T15:06:28.823Z,10.38
2022-12-11T15:08:56.423Z,9.05
2022-12-11T15:11:30.911Z,10.63
2022-12-11T15:14:00.939Z,10.82
2022-12-11T15:16:32.664Z,10.70
2022-12-11T15:19:00.094Z,9.75
2022-12-11T15:21:32.857Z,10.55
2022-12-11T15:24:04.267Z,10.35
2022-12-11T15:26:57.512Z,9.65
2022-12-11T15:29:37.417Z,10.00
2022-12-11T15:32:18.937Z,9.15
2022-12-11T15:34:59.709Z,9.70
2022-12-11T15:37:36.469Z,10.23
2022-12-11T15:40:04.693Z,10.27
2022-12-11T15:42:39.661Z,10.10
2022-12-11T15:45:12.050Z,10.70
2022-12-11T15:47:38.818Z,10.77
2022-12-11T15:50:28.048Z,9.80
2022-12-11T15:52:56.560Z,10.27
2022-12-11T15:55:26.846Z,10.30
2022-12-11T15:57:58.564Z,10.00
2022-12-11T16:00:27.408Z,10.48
2022-12-11T16:02:55.528Z,10.52
2022-12-11T16:05:22.346Z,11.25
2022-12-11T16:07:52.020Z,10.95
2022-12-11T16:10:20.166Z,12.10
2022-12-11T16:12:47.217Z,10.48
2022-12-11T16:15:23.048Z,13.52
2022-12-11T16:17:50.536Z,12.68
2022-12-11T16:20:17.320Z,10.88
2022-12-11T16:22:44.543Z,11.25
2022-12-11T16:25:11.716Z,10.27
2022-12-11T16:27:38.532Z,10.95
2022-12-11T16:30:07.371Z,11.70
2022-12-11T16:32:34.264Z,10.55
2022-12-11T16:35:01.040Z,12.23
2022-12-11T16:37:27.880Z,13.63
2022-12-11T16:39:54.501Z,14.93
2022-12-11T16:42:21.181Z,13.68
2022-12-11T16:44:51.798Z,14.73
2022-12-11T16:47:18.421Z,17.73
2022-12-11T16:49:45.134Z,16.38
2022-12-11T16:52:15.355Z,13.45
2022-12-11T16:54:45.585Z,16.80
2022-12-11T16:57:12.180Z,15.85
2022-12-11T16:59:38.796Z,14.15
2022-12-11T17:02:06.288Z,13.40
2022-12-11T17:04:32.896Z,12.30
2022-12-11T17:06:59.516Z,13.38
2022-12-11T17:09:26.093Z,15.10
2022-12-11T17:11:52.708Z,14.20
2022-12-11T17:14:20.150Z,11.80
2022-12-11T17:16:47.990Z,13.45
2022-12-11T17:19:15.120Z,12.70
2022-12-11T17:21:44.717Z,11.88
2022-12-11T17:24:13.660Z,11.82
2022-12-11T17:26:40.445Z,10.57
2022-12-11T17:29:07.400Z,12.45
2022-12-11T17:31:34.083Z,18.33
2022-12-11T17:34:01.049Z,16.77
2022-12-11T17:36:27.865Z,13.88
2022-12-11T17:38:54.541Z,12.10
2022-12-11T17:41:21.757Z,12.43
2022-12-11T17:43:53.372Z,13.23
2022-12-11T17:46:21.136Z,13.20
2022-12-11T17:48:48.764Z,14.73
2022-12-11T17:51:21.744Z,20.02
2022-12-11T17:53:48.375Z,20.10
2022-12-11T17:56:18.761Z,21.00
2022-12-11T17:58:45.374Z,35.88
2022-12-11T18:01:15.017Z,27.83
2022-12-11T18:03:42.237Z,22.67
2022-12-11T18:06:13.596Z,16.67
2022-12-11T18:08:41.465Z,14.65
2022-12-11T18:11:13.068Z,14.68
2022-12-11T18:13:39.808Z,15.05
2022-12-11T18:16:22.309Z,18.45
2022-12-11T18:18:50.166Z,14.20
2022-12-11T18:21:24.951Z,13.98
2022-12-11T18:23:52.503Z,14.52
2022-12-11T18:26:20.087Z,14.60
2022-12-11T18:28:49.175Z,13.65
2022-12-11T18:31:16.909Z,12.60
2022-12-11T18:33:44.802Z,21.30
2022-12-11T18:36:14.167Z,28.70
2022-12-11T18:38:42.355Z,24.80
2022-12-11T18:41:11.551Z,27.65
2022-12-11T18:43:38.231Z,19.75
2022-12-11T18:46:07.867Z,30.45
2022-12-11T18:48:34.707Z,16.58
2022-12-11T18:51:01.403Z,19.70
2022-12-11T18:53:27.991Z,20.30
2022-12-11T18:55:59.995Z,18.17
2022-12-11T18:58:27.039Z,17.83
2022-12-11T19:00:53.701Z,16.73
2022-12-11T19:03:20.298Z,16.27
2022-12-11T19:05:46.963Z,16.50
2022-12-11T19:08:13.830Z,14.77
2022-12-11T19:10:45.699Z,14.38
2022-12-11T19:13:13.790Z,12.82
2022-12-11T19:15:43.970Z,11.73
2022-12-11T19:18:11.273Z,10.98
2022-12-11T19:20:49.187Z,12.25
2022-12-11T19:23:18.176Z,11.93
2022-12-11T19:25:48.668Z,11.57
2022-12-11T19:28:16.280Z,12.02
2022-12-11T19:30:48.921Z,10.80
2022-12-11T19:33:16.945Z,11.30
2022-12-11T19:35:44.053Z,12.52
2022-12-11T19:38:12.714Z,10.88
2022-12-11T19:40:41.901Z,10.00
2022-12-11T19:43:09.119Z,11.25
2022-12-11T19:45:36.655Z,10.88
2022-12-11T19:48:03.468Z,10.80
2022-12-11T19:50:30.102Z,10.38
2022-12-11T19:52:56.764Z,11.35
2022-12-11T19:55:23.333Z,12.90
2022-12-11T19:57:49.974Z,11.07
2022-12-11T20:00:17.009Z,11.25
2022-12-11T20:02:43.728Z,10.60
2022-12-11T20:05:11.196Z,10.82
2022-12-11T20:07:38.608Z,10.27
2022-12-11T20:10:06.203Z,11.00
2022-12-11T20:12:32.807Z,9.73
2022-12-11T20:14:59.393Z,9.75
2022-12-11T20:17:27.519Z,9.98
2022-12-11T20:19:54.162Z,10.25
2022-12-11T20:22:20.796Z,10.23
2022-12-11T20:24:54.191Z,11.18
2022-12-11T20:27:20.750Z,10.75
2022-12-11T20:29:47.326Z,10.98
2022-12-11T20:32:14.508Z,10.30
2022-12-11T20:34:41.222Z,10.55
2022-12-11T20:37:08.204Z,10.77
2022-12-11T20:39:35.515Z,10.77
2022-12-11T20:42:04.682Z,10.60
2022-12-11T20:44:32.282Z,10.57
2022-12-11T20:46:59.120Z,10.45
2022-12-11T20:49:25.739Z,10.35
2022-12-11T20:51:52.364Z,10.40
2022-12-11T20:54:19.099Z,12.20
2022-12-11T20:56:45.820Z,12.85
2022-12-11T20:59:13.534Z,10.90
2022-12-11T21:01:40.365Z,11.75
2022-12-11T21:04:07.012Z,11.05
2022-12-11T21:06:36.836Z,10.82
2022-12-11T21:09:08.928Z,16.70
2022-12-11T21:11:35.549Z,19.15
2022-12-11T21:14:03.353Z,16.45
2022-12-11T21:16:30.336Z,11.93
2022-12-11T21:18:58.013Z,10.50
2022-12-11T21:21:26.008Z,11.02
2022-12-11T21:23:52.854Z,10.88
2022-12-11T21:26:19.915Z,11.15
2022-12-11T21:28:46.599Z,10.93
2022-12-11T21:31:17.291Z,10.93
2022-12-11T21:33:44.711Z,11.38
2022-12-11T21:36:13.159Z,10.88
2022-12-11T21:38:41.588Z,10.80
2022-12-11T21:41:15.500Z,11.20
2022-12-11T21:44:19.279Z,10.38
2022-12-11T21:46:30.615Z,11.85
2022-12-11T21:48:57.391Z,11.07
2022-12-11T21:51:36.871Z,11.10
2022-12-11T21:54:07.225Z,11.55
2022-12-11T21:56:33.921Z,10.02
2022-12-11T21:59:01.430Z,10.57
2022-12-11T22:01:33.219Z,10.80
2022-12-11T22:03:59.854Z,11.30
2022-12-11T22:06:26.923Z,10.52
2022-12-11T22:08:53.547Z,10.75
2022-12-11T22:11:23.869Z,11.90
2022-12-11T22:13:50.508Z,10.50
2022-12-11T22:16:17.400Z,11.00
2022-12-11T22:18:44.122Z,10.25
2022-12-11T22:21:10.814Z,9.70
2022-12-11T22:23:39.293Z,10.48
2022-12-11T22:26:16.328Z,9.35
2022-12-11T22:28:43.036Z,10.85
2022-12-11T22:31:12.521Z,10.63
2022-12-11T22:33:39.403Z,10.82
2022-12-11T22:36:06.511Z,10.10
2022-12-11T22:38:34.644Z,9.68
2022-12-11T22:41:02.937Z,10.63
2022-12-11T22:43:29.512Z,9.95
2022-12-11T22:45:56.145Z,10.10
2022-12-11T22:48:27.120Z,10.40
2022-12-11T22:50:54.648Z,10.43
2022-12-11T22:53:23.044Z,9.32
2022-12-11T22:55:49.688Z,9.57
2022-12-11T22:58:21.609Z,10.30
2022-12-11T23:00:48.947Z,9.73
2022-12-11T23:03:15.835Z,10.27
2022-12-11T23:05:43.319Z,9.45
2022-12-11T23:08:10.142Z,9.90
2022-12-11T23:10:40.386Z,10.23
2022-12-11T23:13:09.045Z,9.93
2022-12-11T23:15:36.224Z,8.57
2022-12-11T23:18:03.033Z,9.65
2022-12-11T23:20:29.760Z,9.43
2022-12-11T23:22:56.537Z,9.82
2022-12-11T23:25:23.212Z,8.95
2022-12-11T23:27:49.771Z,9.45
2022-12-11T23:30:16.335Z,8.90
2022-12-11T23:32:42.923Z,9.95
2022-12-11T23:35:09.918Z,9.90
2022-12-11T23:37:36.820Z,9.38
2022-12-11T23:40:05.350Z,9.48
2022-12-11T23:42:33.184Z,9.40
2022-12-11T23:45:07.465Z,9.40
2022-12-11T23:47:34.148Z,9.55
2022-12-11T23:50:00.741Z,9.88
2022-12-11T23:52:27.328Z,10.43
2022-12-11T23:54:55.200Z,9.75
2022-12-11T23:57:21.800Z,8.77
2022-12-11T23:59:48.348Z,7.63
